createdAt,value
2022-09-27T00:01:50.810Z,1.15
2022-09-27T00:06:52.326Z,1.42
2022-09-27T00:11:53.770Z,1.33
2022-09-27T00:16:55.923Z,1.02
2022-09-27T00:21:57.479Z,1.13
2022-09-27T00:26:59.440Z,1.00
2022-09-27T00:32:01.069Z,0.60
2022-09-27T00:37:02.546Z,0.73
2022-09-27T00:42:04.045Z,0.60
2022-09-27T00:47:23.870Z,0.73
2022-09-27T00:52:34.614Z,0.65
2022-09-27T00:57:36.251Z,0.60
2022-09-27T01:02:38.916Z,0.60
2022-09-27T01:07:40.436Z,0.55
2022-09-27T01:12:41.836Z,0.57
2022-09-27T01:17:55.742Z,0.50
2022-09-27T01:23:11.303Z,0.57
2022-09-27T01:28:21.512Z,0.70
2022-09-27T01:33:31.278Z,0.60
2022-09-27T01:38:35.546Z,0.60
2022-09-27T01:43:39.780Z,0.70
2022-09-27T01:48:46.449Z,0.70
2022-09-27T01:53:50.728Z,0.80
2022-09-27T01:58:56.461Z,0.57
2022-09-27T02:04:00.660Z,0.90
2022-09-27T02:09:05.231Z,0.80
2022-09-27T02:14:11.556Z,0.77
2022-09-27T02:19:18.716Z,0.85
2022-09-27T02:24:22.885Z,0.82
2022-09-27T02:29:29.348Z,1.00
2022-09-27T02:34:32.472Z,0.82
2022-09-27T02:39:33.907Z,0.80
2022-09-27T02:44:35.694Z,0.80
2022-09-27T02:49:37.094Z,0.98
2022-09-27T02:54:44.398Z,0.80
2022-09-27T02:59:52.013Z,1.08
2022-09-27T03:04:59.498Z,1.00
2022-09-27T03:10:01.171Z,0.68
2022-09-27T03:15:02.737Z,0.80
2022-09-27T03:20:04.317Z,0.98
2022-09-27T03:25:06.246Z,0.63
2022-09-27T03:30:07.949Z,0.80
2022-09-27T03:35:09.380Z,0.85
2022-09-27T03:40:10.900Z,0.75
2022-09-27T03:45:13.664Z,0.68
2022-09-27T03:50:15.263Z,0.90
2022-09-27T03:55:16.712Z,0.77
2022-09-27T04:00:18.243Z,0.70
2022-09-27T04:05:19.675Z,0.70
2022-09-27T04:10:21.714Z,0.80
2022-09-27T04:15:23.329Z,0.60
2022-09-27T04:20:24.758Z,0.80
2022-09-27T04:25:26.211Z,0.73
2022-09-27T04:30:28.590Z,0.70
2022-09-27T04:35:48.822Z,0.60
2022-09-27T04:40:51.025Z,0.60
2022-09-27T04:45:52.633Z,0.73
2022-09-27T04:50:58.169Z,0.70
2022-09-27T04:56:02.891Z,0.75
2022-09-27T05:01:04.913Z,0.70
2022-09-27T05:06:06.548Z,0.90
2022-09-27T05:11:07.968Z,0.75
2022-09-27T05:16:09.408Z,0.75
2022-09-27T05:21:10.838Z,0.75
2022-09-27T05:26:12.291Z,0.60
2022-09-27T05:31:14.515Z,0.70
2022-09-27T05:36:16.560Z,0.80
2022-09-27T05:41:18.299Z,0.88
2022-09-27T05:46:19.902Z,0.75
2022-09-27T05:51:21.386Z,0.80
2022-09-27T05:56:22.824Z,0.60
2022-09-27T06:01:28.262Z,0.90
2022-09-27T06:06:29.729Z,0.65
2022-09-27T06:11:31.157Z,0.80
2022-09-27T06:16:32.645Z,0.90
2022-09-27T06:21:34.146Z,0.80
2022-09-27T06:26:35.575Z,0.90
2022-09-27T06:31:37.033Z,1.17
2022-09-27T06:36:38.502Z,0.68
2022-09-27T06:41:39.923Z,1.08
2022-09-27T06:46:42.806Z,1.10
2022-09-27T06:51:44.228Z,0.65
2022-09-27T06:56:48.888Z,0.90
2022-09-27T07:01:52.712Z,0.68
2022-09-27T07:06:54.529Z,0.77
2022-09-27T07:11:55.953Z,1.00
2022-09-27T07:16:57.457Z,1.10
2022-09-27T07:21:58.886Z,0.90
2022-09-27T07:27:00.320Z,0.73
2022-09-27T07:32:02.129Z,0.88
2022-09-27T07:37:05.539Z,0.82
2022-09-27T07:42:07.014Z,0.43
2022-09-27T07:47:08.577Z,0.70
2022-09-27T07:52:09.991Z,0.77
2022-09-27T07:57:11.706Z,0.52
2022-09-27T08:02:16.805Z,0.63
2022-09-27T08:07:18.281Z,0.73
2022-09-27T08:12:21.627Z,1.00
2022-09-27T08:17:23.050Z,1.05
2022-09-27T08:22:24.537Z,0.80
2022-09-27T08:27:26.005Z,0.88
2022-09-27T08:32:28.858Z,0.70
2022-09-27T08:37:30.298Z,0.80
2022-09-27T08:42:36.854Z,0.90
2022-09-27T08:47:50.239Z,0.90
2022-09-27T08:52:54.535Z,1.05
2022-09-27T08:57:57.490Z,0.90
2022-09-27T09:03:01.596Z,1.05
2022-09-27T09:08:02.998Z,1.00
2022-09-27T09:13:12.546Z,1.00
2022-09-27T09:18:29.141Z,1.43
2022-09-27T09:23:41.400Z,1.50
2022-09-27T09:28:51.257Z,1.90
2022-09-27T09:33:55.024Z,2.38
2022-09-27T09:38:59.316Z,2.45
2022-09-27T09:44:05.750Z,2.50
2022-09-27T09:49:25.756Z,2.40
2022-09-27T09:54:31.634Z,3.63
2022-09-27T09:59:35.845Z,2.53
2022-09-27T10:04:37.355Z,2.70
2022-09-27T10:09:39.032Z,2.92
2022-09-27T10:14:40.954Z,2.85
2022-09-27T10:19:42.966Z,3.00
2022-09-27T10:25:02.572Z,3.17
2022-09-27T10:30:04.487Z,3.22
2022-09-27T10:35:24.465Z,3.22
2022-09-27T10:40:28.065Z,3.50
2022-09-27T10:45:33.154Z,3.42
2022-09-27T10:50:50.316Z,3.67
2022-09-27T10:55:53.318Z,4.07
2022-09-27T11:01:03.577Z,3.90
2022-09-27T11:06:25.434Z,4.50
2022-09-27T11:11:28.400Z,4.38
2022-09-27T11:16:48.527Z,4.60
2022-09-27T11:21:52.827Z,4.82
2022-09-27T11:27:05.402Z,5.53
2022-09-27T11:32:15.950Z,5.32
2022-09-27T11:37:24.637Z,6.82
2022-09-27T11:42:39.429Z,7.78
2022-09-27T11:47:45.332Z,7.43
2022-09-27T11:53:05.576Z,7.68
2022-09-27T11:58:09.855Z,7.88
2022-09-27T12:03:30.111Z,8.63
2022-09-27T12:08:48.817Z,9.60
2022-09-27T12:13:54.402Z,9.05
2022-09-27T12:18:56.254Z,9.30
2022-09-27T12:24:00.682Z,10.40
2022-09-27T12:29:17.441Z,9.95
2022-09-27T12:34:33.089Z,10.07
2022-09-27T12:39:44.538Z,9.93
2022-09-27T12:44:50.590Z,10.77
2022-09-27T12:50:01.701Z,9.88
2022-09-27T12:55:12.944Z,9.10
2022-09-27T13:00:22.617Z,9.18
2022-09-27T13:05:30.369Z,9.55
2022-09-27T13:10:37.909Z,10.05
2022-09-27T13:15:40.228Z,9.00
2022-09-27T13:20:44.319Z,8.23
2022-09-27T13:25:56.339Z,9.40
2022-09-27T13:30:58.969Z,8.32
2022-09-27T13:36:07.736Z,8.77
2022-09-27T13:41:19.486Z,9.70
2022-09-27T13:46:22.900Z,8.77
2022-09-27T13:51:44.704Z,8.93
2022-09-27T13:56:50.002Z,8.00
2022-09-27T14:01:53.117Z,8.70
2022-09-27T14:07:01.921Z,8.23
2022-09-27T14:12:06.220Z,8.57
2022-09-27T14:17:10.187Z,9.02
2022-09-27T14:22:13.322Z,8.23
2022-09-27T14:27:17.500Z,8.15
2022-09-27T14:32:41.991Z,7.88
2022-09-27T14:37:44.059Z,8.20
2022-09-27T14:42:45.509Z,7.50
2022-09-27T14:47:47.680Z,7.75
2022-09-27T14:52:49.971Z,7.82
2022-09-27T14:57:51.589Z,7.72
2022-09-27T15:02:55.316Z,7.72
2022-09-27T15:07:58.316Z,7.43
2022-09-27T15:13:01.557Z,7.63
2022-09-27T15:18:04.089Z,7.35
2022-09-27T15:23:05.701Z,7.53
2022-09-27T15:28:15.499Z,7.38
2022-09-27T15:33:28.705Z,7.88
2022-09-27T15:38:32.741Z,6.47
2022-09-27T15:43:41.645Z,6.60
2022-09-27T15:48:43.320Z,6.65
2022-09-27T15:53:45.452Z,6.22
2022-09-27T15:58:46.883Z,6.57
2022-09-27T16:03:48.333Z,5.78
2022-09-27T16:08:49.759Z,6.25
2022-09-27T16:13:52.973Z,6.32
2022-09-27T16:18:54.418Z,6.05
2022-09-27T16:23:55.852Z,5.57
2022-09-27T16:28:57.416Z,5.90
2022-09-27T16:34:00.426Z,5.75
2022-09-27T16:39:04.954Z,5.97
2022-09-27T16:44:10.827Z,5.72
2022-09-27T16:49:30.739Z,5.50
2022-09-27T16:54:32.216Z,5.20
2022-09-27T16:59:33.641Z,6.18
2022-09-27T17:04:35.093Z,6.50
2022-09-27T17:09:37.300Z,6.18
2022-09-27T17:14:38.742Z,6.10
2022-09-27T17:19:40.162Z,6.07
2022-09-27T17:24:41.577Z,6.50
2022-09-27T17:29:43.009Z,5.93
2022-09-27T17:34:44.729Z,6.18
2022-09-27T17:39:46.198Z,6.30
2022-09-27T17:44:47.620Z,6.30
2022-09-27T17:50:07.461Z,6.18
2022-09-27T17:55:08.951Z,6.73
2022-09-27T18:00:10.777Z,5.90
2022-09-27T18:05:12.344Z,6.43
2022-09-27T18:10:13.804Z,6.28
2022-09-27T18:15:16.657Z,5.95
2022-09-27T18:20:18.181Z,6.20
2022-09-27T18:25:20.312Z,6.05
2022-09-27T18:30:21.745Z,5.30
2022-09-27T18:35:24.879Z,5.82
2022-09-27T18:40:44.871Z,5.60
2022-09-27T18:45:47.786Z,5.78
2022-09-27T18:50:49.212Z,5.78
2022-09-27T18:55:50.710Z,6.07
2022-09-27T19:00:52.224Z,5.75
2022-09-27T19:05:57.201Z,6.07
2022-09-27T19:11:08.777Z,6.65
2022-09-27T19:16:10.721Z,6.50
2022-09-27T19:21:13.873Z,5.43
2022-09-27T19:26:17.264Z,6.25
2022-09-27T19:31:20.563Z,5.70
2022-09-27T19:36:23.284Z,5.22
2022-09-27T19:41:24.806Z,5.68
2022-09-27T19:46:26.654Z,5.57
2022-09-27T19:51:28.657Z,5.63
2022-09-27T19:56:30.105Z,6.15
2022-09-27T20:01:31.560Z,5.95
2022-09-27T20:06:33.185Z,5.53
2022-09-27T20:11:34.849Z,5.18
2022-09-27T20:16:41.072Z,5.72
2022-09-27T20:21:42.916Z,6.55
2022-09-27T20:26:44.863Z,5.50
2022-09-27T20:32:09.017Z,5.32
2022-09-27T20:37:07.768Z,6.40
2022-09-27T20:42:09.247Z,6.13
2022-09-27T20:47:10.792Z,6.22
2022-09-27T20:52:12.303Z,6.78
2022-09-27T20:57:14.279Z,6.82
2022-09-27T21:02:15.749Z,6.72
2022-09-27T21:07:17.224Z,6.13
2022-09-27T21:12:18.685Z,7.25
2022-09-27T21:17:20.137Z,6.07
2022-09-27T21:22:21.584Z,6.95
2022-09-27T21:27:23.005Z,6.53
2022-09-27T21:32:24.435Z,6.25
2022-09-27T21:37:25.972Z,6.68
2022-09-27T21:42:27.412Z,6.57
2022-09-27T21:47:28.977Z,8.25
2022-09-27T21:52:30.397Z,6.68
2022-09-27T21:57:31.829Z,7.18
2022-09-27T22:02:33.257Z,6.88
2022-09-27T22:07:34.709Z,6.13
2022-09-27T22:12:36.133Z,5.95
2022-09-27T22:17:37.561Z,6.30
2022-09-27T22:22:38.978Z,6.15
2022-09-27T22:27:40.450Z,5.93
2022-09-27T22:32:45.205Z,5.68
2022-09-27T22:37:46.990Z,6.50
2022-09-27T22:42:48.402Z,6.35
2022-09-27T22:47:49.924Z,6.47
2022-09-27T22:52:51.393Z,6.72
2022-09-27T22:57:52.842Z,6.70
2022-09-27T23:02:54.873Z,8.00
2022-09-27T23:07:56.310Z,7.05
2022-09-27T23:12:58.333Z,6.63
2022-09-27T23:18:00.092Z,6.63
2022-09-27T23:23:01.818Z,6.35
2022-09-27T23:28:03.290Z,7.30
2022-09-27T23:33:04.737Z,6.63
2022-09-27T23:38:06.962Z,6.32
2022-09-27T23:43:09.158Z,6.88
2022-09-27T23:48:11.082Z,6.75
2022-09-27T23:53:12.511Z,6.57
2022-09-27T23:58:14.069Z,7.10
